Chatham, New Hampshire
Current Conditions -  °F | °C
As of 5:54 AM on Saturday 25 Oct 2014 (Local Time) from KIZG Reporting Station
Overcast Overcast  
Wind Chill: 42°   Ceiling: 10000
Heat Index: 42°   Visibility: 10mi
Dew Point: 39°   Wind: 3mph
Humidity: 89%   Direction: 130°SE
Pressure: 29.68"   Gusts: NA
Location:  43.9597°N, 71.0453°W
Report Text: KIZG 250954Z AUTO 13003KT 10SM OVC100 06/04 A2968 RMK AO2 SLP055 T00560039
Loading
Personal Weather Stations






























Interactive Weather Map
Tropical Storm Tracking
New forecast layout! Learn more

10-Day Weather Forecast

Advertisements
Track Severe Weather on mobile